sensor_id;sensor_type;location;lat;lon;timestamp;pressure;altitude;pressure_sealevel;temperature;humidity
50226;BME280;36113;50.742;6.432;2023-07-29T00:00:14;98050.25;;;18.66;82.49
50226;BME280;36113;50.742;6.432;2023-07-29T00:02:39;98031.22;;;18.60;82.43
50226;BME280;36113;50.742;6.432;2023-07-29T00:05:05;98049.56;;;18.69;82.21
50226;BME280;36113;50.742;6.432;2023-07-29T00:07:30;98039.56;;;18.64;82.06
50226;BME280;36113;50.742;6.432;2023-07-29T00:09:55;98046.00;;;18.68;82.56
50226;BME280;36113;50.742;6.432;2023-07-29T00:12:20;98016.63;;;18.48;82.26
50226;BME280;36113;50.742;6.432;2023-07-29T00:14:46;98053.00;;;18.66;82.24
50226;BME280;36113;50.742;6.432;2023-07-29T00:17:11;98024.56;;;18.49;82.51
50226;BME280;36113;50.742;6.432;2023-07-29T00:19:36;98048.19;;;18.63;82.30
50226;BME280;36113;50.742;6.432;2023-07-29T00:22:02;98010.09;;;18.40;82.51
50226;BME280;36113;50.742;6.432;2023-07-29T00:24:27;98033.97;;;18.60;82.41
50226;BME280;36113;50.742;6.432;2023-07-29T00:26:53;98036.94;;;18.68;82.44
50226;BME280;36113;50.742;6.432;2023-07-29T00:29:18;98030.88;;;18.62;82.29
50226;BME280;36113;50.742;6.432;2023-07-29T00:31:43;98011.25;;;18.51;82.21
50226;BME280;36113;50.742;6.432;2023-07-29T00:34:08;98026.25;;;18.66;81.93
50226;BME280;36113;50.742;6.432;2023-07-29T00:36:34;98042.44;;;18.68;82.27
50226;BME280;36113;50.742;6.432;2023-07-29T00:38:59;98058.16;;;18.67;82.56
50226;BME280;36113;50.742;6.432;2023-07-29T00:41:25;98006.44;;;18.36;83.58
50226;BME280;36113;50.742;6.432;2023-07-29T00:43:51;97988.06;;;18.15;84.25
50226;BME280;36113;50.742;6.432;2023-07-29T00:46:16;98045.53;;;18.54;84.63
50226;BME280;36113;50.742;6.432;2023-07-29T00:48:42;98034.63;;;18.45;85.38
50226;BME280;36113;50.742;6.432;2023-07-29T00:51:07;98034.31;;;18.47;85.18
50226;BME280;36113;50.742;6.432;2023-07-29T00:53:33;98033.38;;;18.43;85.86
50226;BME280;36113;50.742;6.432;2023-07-29T00:55:58;98027.84;;;18.30;86.76
50226;BME280;36113;50.742;6.432;2023-07-29T00:58:24;98029.47;;;18.31;87.07
50226;BME280;36113;50.742;6.432;2023-07-29T01:00:50;97992.03;;;18.06;87.12
50226;BME280;36113;50.742;6.432;2023-07-29T01:03:15;98029.66;;;18.14;88.32
50226;BME280;36113;50.742;6.432;2023-07-29T01:05:59;98052.47;;;18.14;88.83
50226;BME280;36113;50.742;6.432;2023-07-29T01:11:36;98042.38;;;18.18;88.32
50226;BME280;36113;50.742;6.432;2023-07-29T01:14:31;98016.13;;;18.09;88.02
50226;BME280;36113;50.742;6.432;2023-07-29T01:17:08;98028.50;;;18.15;88.35
50226;BME280;36113;50.742;6.432;2023-07-29T01:19:54;98036.75;;;18.15;88.10
50226;BME280;36113;50.742;6.432;2023-07-29T01:22:21;98025.84;;;18.06;88.71
50226;BME280;36113;50.742;6.432;2023-07-29T01:24:46;98003.84;;;17.94;88.70
50226;BME280;36113;50.742;6.432;2023-07-29T01:27:11;98025.84;;;18.06;88.49
50226;BME280;36113;50.742;6.432;2023-07-29T01:29:37;98020.25;;;18.03;88.38
50226;BME280;36113;50.742;6.432;2023-07-29T01:32:09;97955.81;;;17.58;87.31
50226;BME280;36113;50.742;6.432;2023-07-29T01:34:43;98037.06;;;18.01;86.64
50226;BME280;36113;50.742;6.432;2023-07-29T01:37:12;98029.31;;;17.82;86.72
50226;BME280;36113;50.742;6.432;2023-07-29T01:39:40;98034.22;;;17.76;86.48
50226;BME280;36113;50.742;6.432;2023-07-29T01:42:08;98024.31;;;17.63;85.91
50226;BME280;36113;50.742;6.432;2023-07-29T01:44:34;98036.31;;;17.58;85.53
50226;BME280;36113;50.742;6.432;2023-07-29T01:47:00;98036.72;;;17.48;85.84
50226;BME280;36113;50.742;6.432;2023-07-29T01:49:26;98022.72;;;17.41;85.65
50226;BME280;36113;50.742;6.432;2023-07-29T01:51:51;98026.59;;;17.40;85.59
50226;BME280;36113;50.742;6.432;2023-07-29T01:54:16;98026.94;;;17.38;85.74
50226;BME280;36113;50.742;6.432;2023-07-29T01:56:41;98014.69;;;17.36;85.24
50226;BME280;36113;50.742;6.432;2023-07-29T01:59:07;98020.84;;;17.33;84.79
50226;BME280;36113;50.742;6.432;2023-07-29T02:01:32;97999.19;;;17.10;84.73
50226;BME280;36113;50.742;6.432;2023-07-29T02:03:57;98035.59;;;17.28;84.82
50226;BME280;36113;50.742;6.432;2023-07-29T02:06:22;97994.91;;;17.01;84.65
50226;BME280;36113;50.742;6.432;2023-07-29T02:08:48;98009.91;;;17.03;84.72
50226;BME280;36113;50.742;6.432;2023-07-29T02:11:13;98001.59;;;16.91;85.19
50226;BME280;36113;50.742;6.432;2023-07-29T02:13:38;98019.16;;;16.99;85.85
50226;BME280;36113;50.742;6.432;2023-07-29T02:16:04;98023.66;;;17.03;85.99
50226;BME280;36113;50.742;6.432;2023-07-29T02:18:29;97995.97;;;16.87;86.26
50226;BME280;36113;50.742;6.432;2023-07-29T02:20:54;98009.78;;;17.00;86.47
50226;BME280;36113;50.742;6.432;2023-07-29T02:23:20;98001.28;;;16.92;86.22
50226;BME280;36113;50.742;6.432;2023-07-29T02:25:45;97967.94;;;16.73;86.33
50226;BME280;36113;50.742;6.432;2023-07-29T02:28:10;97977.44;;;16.75;86.25
50226;BME280;36113;50.742;6.432;2023-07-29T02:30:36;98022.38;;;17.01;86.26
50226;BME280;36113;50.742;6.432;2023-07-29T02:33:02;98000.53;;;16.83;86.51
50226;BME280;36113;50.742;6.432;2023-07-29T02:35:27;98025.59;;;17.03;86.31
50226;BME280;36113;50.742;6.432;2023-07-29T02:37:53;97995.69;;;16.80;86.44
50226;BME280;36113;50.742;6.432;2023-07-29T02:40:18;98041.25;;;17.02;86.72
50226;BME280;36113;50.742;6.432;2023-07-29T02:42:43;98043.66;;;17.04;86.98
50226;BME280;36113;50.742;6.432;2023-07-29T02:45:08;98048.69;;;17.02;87.57
50226;BME280;36113;50.742;6.432;2023-07-29T02:47:37;98007.28;;;16.86;87.42
50226;BME280;36113;50.742;6.432;2023-07-29T02:50:02;97985.88;;;16.70;87.80
50226;BME280;36113;50.742;6.432;2023-07-29T02:52:27;98038.50;;;17.02;87.23
50226;BME280;36113;50.742;6.432;2023-07-29T02:54:53;97989.25;;;16.76;87.44
50226;BME280;36113;50.742;6.432;2023-07-29T02:57:18;98018.81;;;17.00;87.26
50226;BME280;36113;50.742;6.432;2023-07-29T02:59:43;98001.88;;;16.98;86.56
50226;BME280;36113;50.742;6.432;2023-07-29T03:02:09;97997.72;;;16.92;87.34
50226;BME280;36113;50.742;6.432;2023-07-29T03:04:34;97978.72;;;16.78;87.26
50226;BME280;36113;50.742;6.432;2023-07-29T03:06:59;97994.69;;;16.85;87.59
50226;BME280;36113;50.742;6.432;2023-07-29T03:09:25;97972.81;;;16.67;87.36
50226;BME280;36113;50.742;6.432;2023-07-29T03:11:50;97997.91;;;16.87;87.73
50226;BME280;36113;50.742;6.432;2023-07-29T03:14:17;98006.97;;;16.87;87.29
50226;BME280;36113;50.742;6.432;2023-07-29T03:16:43;97977.97;;;16.69;87.43
50226;BME280;36113;50.742;6.432;2023-07-29T03:19:08;97964.66;;;16.59;87.33
50226;BME280;36113;50.742;6.432;2023-07-29T03:21:34;97953.00;;;16.62;87.10
50226;BME280;36113;50.742;6.432;2023-07-29T03:23:59;97976.66;;;16.75;87.14
50226;BME280;36113;50.742;6.432;2023-07-29T03:26:25;97983.75;;;16.76;87.00
50226;BME280;36113;50.742;6.432;2023-07-29T03:28:50;97993.78;;;16.72;86.96
50226;BME280;36113;50.742;6.432;2023-07-29T03:31:16;97965.00;;;16.48;87.07
50226;BME280;36113;50.742;6.432;2023-07-29T03:33:41;98002.19;;;16.67;86.97
50226;BME280;36113;50.742;6.432;2023-07-29T03:36:06;98015.59;;;16.68;87.28
50226;BME280;36113;50.742;6.432;2023-07-29T03:38:32;98007.34;;;16.68;86.64
50226;BME280;36113;50.742;6.432;2023-07-29T03:41:00;98013.31;;;16.70;86.71
50226;BME280;36113;50.742;6.432;2023-07-29T03:43:27;98015.78;;;16.63;86.55
50226;BME280;36113;50.742;6.432;2023-07-29T03:45:53;98025.81;;;16.59;86.83
50226;BME280;36113;50.742;6.432;2023-07-29T03:48:18;98007.44;;;16.51;86.49
50226;BME280;36113;50.742;6.432;2023-07-29T03:50:43;98016.94;;;16.53;86.83
50226;BME280;36113;50.742;6.432;2023-07-29T03:53:09;98017.78;;;16.54;87.31
50226;BME280;36113;50.742;6.432;2023-07-29T03:55:35;98018.09;;;16.52;87.11
50226;BME280;36113;50.742;6.432;2023-07-29T03:58:00;98008.63;;;16.41;87.29
50226;BME280;36113;50.742;6.432;2023-07-29T04:00:26;98011.84;;;16.43;87.20
50226;BME280;36113;50.742;6.432;2023-07-29T04:02:52;98010.69;;;16.44;87.39
50226;BME280;36113;50.742;6.432;2023-07-29T04:05:17;97984.97;;;16.28;87.31
50226;BME280;36113;50.742;6.432;2023-07-29T04:07:43;98007.94;;;16.44;87.36
50226;BME280;36113;50.742;6.432;2023-07-29T04:10:08;98017.81;;;16.45;87.79
50226;BME280;36113;50.742;6.432;2023-07-29T04:12:34;98022.47;;;16.45;88.17
50226;BME280;36113;50.742;6.432;2023-07-29T04:14:59;97984.69;;;16.21;87.66
50226;BME280;36113;50.742;6.432;2023-07-29T04:17:25;98037.34;;;16.44;87.84
50226;BME280;36113;50.742;6.432;2023-07-29T04:19:50;98028.94;;;16.40;88.13
50226;BME280;36113;50.742;6.432;2023-07-29T04:22:16;98028.16;;;16.40;87.84
50226;BME280;36113;50.742;6.432;2023-07-29T04:24:41;98034.59;;;16.44;87.57
50226;BME280;36113;50.742;6.432;2023-07-29T04:27:07;98023.13;;;16.42;87.88
50226;BME280;36113;50.742;6.432;2023-07-29T04:29:32;97981.75;;;16.26;87.69
50226;BME280;36113;50.742;6.432;2023-07-29T04:31:57;98021.81;;;16.48;87.65
50226;BME280;36113;50.742;6.432;2023-07-29T04:34:23;97980.31;;;16.20;88.01
50226;BME280;36113;50.742;6.432;2023-07-29T04:36:48;98021.81;;;16.48;88.10
50226;BME280;36113;50.742;6.432;2023-07-29T04:39:14;98018.44;;;16.42;88.07
50226;BME280;36113;50.742;6.432;2023-07-29T04:41:40;98029.72;;;16.49;88.18
50226;BME280;36113;50.742;6.432;2023-07-29T04:44:05;98024.69;;;16.51;88.18
50226;BME280;36113;50.742;6.432;2023-07-29T04:46:30;98013.59;;;16.48;88.12
50226;BME280;36113;50.742;6.432;2023-07-29T04:48:56;98013.91;;;16.46;88.20
50226;BME280;36113;50.742;6.432;2023-07-29T04:51:23;98016.94;;;16.53;88.22
50226;BME280;36113;50.742;6.432;2023-07-29T04:53:49;98018.09;;;16.52;87.97
50226;BME280;36113;50.742;6.432;2023-07-29T04:56:14;98021.59;;;16.62;87.85
50226;BME280;36113;50.742;6.432;2023-07-29T04:58:39;97974.00;;;16.28;87.61
50226;BME280;36113;50.742;6.432;2023-07-29T05:01:05;98000.19;;;16.46;87.30
50226;BME280;36113;50.742;6.432;2023-07-29T05:03:31;97946.63;;;16.19;87.25
50226;BME280;36113;50.742;6.432;2023-07-29T05:05:57;98034.13;;;16.71;87.33
50226;BME280;36113;50.742;6.432;2023-07-29T05:08:23;98039.50;;;16.68;87.47
50226;BME280;36113;50.742;6.432;2023-07-29T05:10:48;98033.53;;;16.66;87.74
50226;BME280;36113;50.742;6.432;2023-07-29T05:13:14;98005.88;;;16.41;87.67
50226;BME280;36113;50.742;6.432;2023-07-29T05:15:40;98030.16;;;16.60;87.79
50226;BME280;36113;50.742;6.432;2023-07-29T05:18:05;98035.34;;;16.53;87.77
50226;BME280;36113;50.742;6.432;2023-07-29T05:20:30;98030.34;;;16.55;87.97
50226;BME280;36113;50.742;6.432;2023-07-29T05:22:56;98036.78;;;16.59;87.55
50226;BME280;36113;50.742;6.432;2023-07-29T05:25:21;98035.63;;;16.60;87.86
50226;BME280;36113;50.742;6.432;2023-07-29T05:27:46;98040.28;;;16.68;87.12
50226;BME280;36113;50.742;6.432;2023-07-29T05:30:12;98040.97;;;16.65;87.70
50226;BME280;36113;50.742;6.432;2023-07-29T05:32:37;98003.47;;;16.40;87.56
50226;BME280;36113;50.742;6.432;2023-07-29T05:35:03;98043.69;;;16.65;87.48
50226;BME280;36113;50.742;6.432;2023-07-29T05:37:28;98041.75;;;16.66;87.02
50226;BME280;36113;50.742;6.432;2023-07-29T05:39:53;98028.75;;;16.54;87.51
50226;BME280;36113;50.742;6.432;2023-07-29T05:42:18;98028.91;;;16.49;87.13
50226;BME280;36113;50.742;6.432;2023-07-29T05:44:44;98027.00;;;16.49;87.37
50226;BME280;36113;50.742;6.432;2023-07-29T05:47:09;98064.47;;;16.75;87.17
50226;BME280;36113;50.742;6.432;2023-07-29T05:49:34;98070.44;;;16.77;87.14
50226;BME280;36113;50.742;6.432;2023-07-29T05:52:00;98049.31;;;16.69;86.74
50226;BME280;36113;50.742;6.432;2023-07-29T05:54:25;98067.69;;;16.77;87.21
50226;BME280;36113;50.742;6.432;2023-07-29T05:56:50;98044.19;;;16.67;86.95
50226;BME280;36113;50.742;6.432;2023-07-29T05:59:15;98084.78;;;16.91;86.68
50226;BME280;36113;50.742;6.432;2023-07-29T06:01:41;98087.16;;;16.93;86.34
50226;BME280;36113;50.742;6.432;2023-07-29T06:04:07;98092.53;;;16.89;86.23
50226;BME280;36113;50.742;6.432;2023-07-29T06:06:32;98091.44;;;16.82;86.41
50226;BME280;36113;50.742;6.432;2023-07-29T06:08:57;98112.34;;;16.95;86.71
50226;BME280;36113;50.742;6.432;2023-07-29T06:11:23;98109.88;;;17.02;86.22
50226;BME280;36113;50.742;6.432;2023-07-29T06:13:48;98071.09;;;16.83;85.79
50226;BME280;36113;50.742;6.432;2023-07-29T06:16:14;98109.75;;;16.99;85.53
50226;BME280;36113;50.742;6.432;2023-07-29T06:18:39;98081.41;;;16.86;85.38
50226;BME280;36113;50.742;6.432;2023-07-29T06:21:04;98109.56;;;17.04;85.21
50226;BME280;36113;50.742;6.432;2023-07-29T06:23:33;98110.53;;;17.08;84.75
50226;BME280;36113;50.742;6.432;2023-07-29T06:25:58;98092.78;;;17.05;84.52
50226;BME280;36113;50.742;6.432;2023-07-29T06:28:25;98092.25;;;17.12;84.22
50226;BME280;36113;50.742;6.432;2023-07-29T06:30:51;98112.38;;;17.25;84.30
50226;BME280;36113;50.742;6.432;2023-07-29T06:33:16;98048.88;;;16.96;84.08
50226;BME280;36113;50.742;6.432;2023-07-29T06:35:41;98095.53;;;17.26;84.06
50226;BME280;36113;50.742;6.432;2023-07-29T06:38:07;98094.88;;;17.29;83.80
50226;BME280;36113;50.742;6.432;2023-07-29T06:40:32;98094.06;;;17.29;83.61
50226;BME280;36113;50.742;6.432;2023-07-29T06:42:57;98092.78;;;17.26;82.93
50226;BME280;36113;50.742;6.432;2023-07-29T06:45:23;98087.03;;;17.40;82.76
50226;BME280;36113;50.742;6.432;2023-07-29T06:47:48;98085.53;;;17.51;82.21
50226;BME280;36113;50.742;6.432;2023-07-29T06:50:13;98096.72;;;17.67;81.72
50226;BME280;36113;50.742;6.432;2023-07-29T06:52:39;98070.63;;;17.52;81.59
50226;BME280;36113;50.742;6.432;2023-07-29T06:55:05;98121.81;;;17.87;80.75
50226;BME280;36113;50.742;6.432;2023-07-29T06:57:31;98119.91;;;17.99;80.13
50226;BME280;36113;50.742;6.432;2023-07-29T06:59:56;98106.75;;;18.05;79.81
50226;BME280;36113;50.742;6.432;2023-07-29T07:02:21;98069.13;;;17.97;79.44
50226;BME280;36113;50.742;6.432;2023-07-29T07:04:47;98066.94;;;17.90;78.25
50226;BME280;36113;50.742;6.432;2023-07-29T07:07:12;98112.97;;;18.14;78.85
50226;BME280;36113;50.742;6.432;2023-07-29T07:09:37;98128.47;;;18.19;78.64
50226;BME280;36113;50.742;6.432;2023-07-29T07:12:03;98128.34;;;18.15;77.71
50226;BME280;36113;50.742;6.432;2023-07-29T07:14:28;98126.50;;;18.19;77.93
50226;BME280;36113;50.742;6.432;2023-07-29T07:16:53;98129.72;;;18.22;77.63
50226;BME280;36113;50.742;6.432;2023-07-29T07:19:19;98120.34;;;18.23;77.72
50226;BME280;36113;50.742;6.432;2023-07-29T07:21:44;98127.50;;;18.36;77.66
50226;BME280;36113;50.742;6.432;2023-07-29T07:24:09;98101.19;;;18.26;77.08
50226;BME280;36113;50.742;6.432;2023-07-29T07:26:35;98083.97;;;18.17;77.18
50226;BME280;36113;50.742;6.432;2023-07-29T07:29:00;98122.94;;;18.40;77.38
50226;BME280;36113;50.742;6.432;2023-07-29T07:31:25;98103.84;;;18.35;77.23
50226;BME280;36113;50.742;6.432;2023-07-29T07:33:51;98121.53;;;18.46;77.58
50226;BME280;36113;50.742;6.432;2023-07-29T07:36:16;98111.91;;;18.40;76.12
50226;BME280;36113;50.742;6.432;2023-07-29T07:38:41;98125.00;;;18.43;76.00
50226;BME280;36113;50.742;6.432;2023-07-29T07:41:07;98112.38;;;18.42;75.57
50226;BME280;36113;50.742;6.432;2023-07-29T07:43:32;98083.00;;;18.34;75.54
50226;BME280;36113;50.742;6.432;2023-07-29T07:45:58;98118.03;;;18.70;75.23
50226;BME280;36113;50.742;6.432;2023-07-29T07:48:24;98127.84;;;18.80;74.30
50226;BME280;36113;50.742;6.432;2023-07-29T07:50:50;98107.63;;;18.88;73.53
50226;BME280;36113;50.742;6.432;2023-07-29T07:53:15;98147.47;;;19.03;72.54
50226;BME280;36113;50.742;6.432;2023-07-29T07:55:40;98148.06;;;19.09;72.50
50226;BME280;36113;50.742;6.432;2023-07-29T07:58:05;98149.91;;;19.05;73.08
50226;BME280;36113;50.742;6.432;2023-07-29T08:00:31;98138.41;;;19.02;72.72
50226;BME280;36113;50.742;6.432;2023-07-29T08:03:05;98146.69;;;19.02;72.76
50226;BME280;36113;50.742;6.432;2023-07-29T08:05:31;98099.59;;;18.71;72.15
50226;BME280;36113;50.742;6.432;2023-07-29T08:07:57;98112.19;;;18.72;72.28
50226;BME280;36113;50.742;6.432;2023-07-29T08:10:22;98148.38;;;18.95;71.75
50226;BME280;36113;50.742;6.432;2023-07-29T08:12:47;98142.88;;;18.95;71.85
50226;BME280;36113;50.742;6.432;2023-07-29T08:15:13;98127.84;;;19.05;71.77
50226;BME280;36113;50.742;6.432;2023-07-29T08:17:38;98109.25;;;19.01;71.45
50226;BME280;36113;50.742;6.432;2023-07-29T08:20:04;98134.94;;;19.42;71.12
50226;BME280;36113;50.742;6.432;2023-07-29T08:22:29;98123.69;;;19.48;69.84
50226;BME280;36113;50.742;6.432;2023-07-29T08:24:54;98135.63;;;19.52;69.17
50226;BME280;36113;50.742;6.432;2023-07-29T08:27:20;98117.16;;;19.28;68.93
50226;BME280;36113;50.742;6.432;2023-07-29T08:29:45;98151.38;;;19.39;68.97
50226;BME280;36113;50.742;6.432;2023-07-29T08:32:10;98153.09;;;19.31;69.15
50226;BME280;36113;50.742;6.432;2023-07-29T08:34:35;98126.03;;;19.09;69.79
50226;BME280;36113;50.742;6.432;2023-07-29T08:37:01;98141.41;;;19.22;69.99
50226;BME280;36113;50.742;6.432;2023-07-29T08:39:27;98124.75;;;18.94;69.29
50226;BME280;36113;50.742;6.432;2023-07-29T08:42:01;98145.19;;;19.05;68.98
50226;BME280;36113;50.742;6.432;2023-07-29T08:44:35;98158.97;;;19.17;69.60
50226;BME280;36113;50.742;6.432;2023-07-29T08:47:00;98127.84;;;19.05;69.86
50226;BME280;36113;50.742;6.432;2023-07-29T08:49:26;98131.53;;;19.09;69.87
50226;BME280;36113;50.742;6.432;2023-07-29T08:51:53;98160.13;;;19.29;69.93
50226;BME280;36113;50.742;6.432;2023-07-29T08:54:19;98159.06;;;19.33;69.98
50226;BME280;36113;50.742;6.432;2023-07-29T08:56:45;98156.66;;;19.44;69.65
50226;BME280;36113;50.742;6.432;2023-07-29T08:59:12;98124.47;;;19.48;69.49
50226;BME280;36113;50.742;6.432;2023-07-29T09:01:38;98160.16;;;19.81;68.55
50226;BME280;36113;50.742;6.432;2023-07-29T09:04:04;98147.78;;;20.16;68.59
50226;BME280;36113;50.742;6.432;2023-07-29T09:06:31;98136.72;;;20.44;68.65
50226;BME280;36113;50.742;6.432;2023-07-29T09:08:58;98151.81;;;20.62;67.11
50226;BME280;36113;50.742;6.432;2023-07-29T09:11:24;98149.84;;;20.63;66.73
50226;BME280;36113;50.742;6.432;2023-07-29T09:13:49;98144.84;;;20.53;66.28
50226;BME280;36113;50.742;6.432;2023-07-29T09:16:15;98122.28;;;20.35;66.51
50226;BME280;36113;50.742;6.432;2023-07-29T09:18:40;98133.69;;;20.49;66.81
50226;BME280;36113;50.742;6.432;2023-07-29T09:21:05;98148.34;;;20.65;67.04
50226;BME280;36113;50.742;6.432;2023-07-29T09:23:43;98147.53;;;20.65;66.15
50226;BME280;36113;50.742;6.432;2023-07-29T09:26:10;98161.00;;;20.66;65.87
50226;BME280;36113;50.742;6.432;2023-07-29T09:28:37;98154.31;;;20.67;65.35
50226;BME280;36113;50.742;6.432;2023-07-29T09:31:03;98139.72;;;20.67;65.64
50226;BME280;36113;50.742;6.432;2023-07-29T09:33:32;98161.13;;;20.86;64.74
50226;BME280;36113;50.742;6.432;2023-07-29T09:36:00;98138.31;;;20.73;64.79
50226;BME280;36113;50.742;6.432;2023-07-29T09:38:28;98166.81;;;20.61;64.41
50226;BME280;36113;50.742;6.432;2023-07-29T09:40:57;98151.22;;;20.41;65.14
50226;BME280;36113;50.742;6.432;2023-07-29T09:43:29;98175.09;;;20.61;64.44
50226;BME280;36113;50.742;6.432;2023-07-29T09:45:59;98176.94;;;20.57;64.35
50226;BME280;36113;50.742;6.432;2023-07-29T09:48:26;98188.59;;;20.38;64.81
50226;BME280;36113;50.742;6.432;2023-07-29T09:50:51;98172.88;;;19.98;64.73
50226;BME280;36113;50.742;6.432;2023-07-29T09:53:16;98175.25;;;19.84;66.18
50226;BME280;36113;50.742;6.432;2023-07-29T09:55:47;98130.09;;;19.52;67.14
50226;BME280;36113;50.742;6.432;2023-07-29T09:58:13;98185.22;;;19.76;68.60
50226;BME280;36113;50.742;6.432;2023-07-29T10:00:39;98192.47;;;19.56;67.98
50226;BME280;36113;50.742;6.432;2023-07-29T10:03:06;98200.19;;;19.51;69.27
50226;BME280;36113;50.742;6.432;2023-07-29T10:05:34;98145.66;;;19.07;70.90
50226;BME280;36113;50.742;6.432;2023-07-29T10:08:01;98207.31;;;19.39;71.74
50226;BME280;36113;50.742;6.432;2023-07-29T10:10:27;98188.56;;;19.08;72.55
50226;BME280;36113;50.742;6.432;2023-07-29T10:12:53;98194.88;;;18.96;72.95
50226;BME280;36113;50.742;6.432;2023-07-29T10:15:20;98198.19;;;18.90;74.92
50226;BME280;36113;50.742;6.432;2023-07-29T10:17:46;98198.28;;;18.81;75.77
50226;BME280;36113;50.742;6.432;2023-07-29T10:20:11;98207.47;;;18.85;76.19
50226;BME280;36113;50.742;6.432;2023-07-29T10:22:41;98207.25;;;18.90;76.71
50226;BME280;36113;50.742;6.432;2023-07-29T10:25:18;98205.56;;;18.98;77.20
50226;BME280;36113;50.742;6.432;2023-07-29T10:27:53;98205.31;;;19.03;77.77
50226;BME280;36113;50.742;6.432;2023-07-29T10:30:20;98206.38;;;19.11;77.69
50226;BME280;36113;50.742;6.432;2023-07-29T10:32:47;98189.47;;;19.12;76.97
50226;BME280;36113;50.742;6.432;2023-07-29T10:35:14;98180.19;;;19.05;75.56
50226;BME280;36113;50.742;6.432;2023-07-29T10:37:40;98201.19;;;19.21;75.17
50226;BME280;36113;50.742;6.432;2023-07-29T10:40:09;98187.19;;;19.39;75.04
50226;BME280;36113;50.742;6.432;2023-07-29T10:42:36;98185.81;;;19.57;73.79
50226;BME280;36113;50.742;6.432;2023-07-29T10:45:18;98184.19;;;19.93;73.34
50226;BME280;36113;50.742;6.432;2023-07-29T10:47:44;98177.94;;;20.09;73.24
50226;BME280;36113;50.742;6.432;2023-07-29T10:50:17;98176.91;;;20.29;73.30
50226;BME280;36113;50.742;6.432;2023-07-29T10:52:43;98174.91;;;20.42;73.04
50226;BME280;36113;50.742;6.432;2023-07-29T10:55:26;98170.44;;;20.65;71.89
50226;BME280;36113;50.742;6.432;2023-07-29T10:57:52;98168.16;;;20.99;72.09
50226;BME280;36113;50.742;6.432;2023-07-29T11:00:19;98173.97;;;21.42;71.10
50226;BME280;36113;50.742;6.432;2023-07-29T11:02:58;98179.16;;;21.63;70.52
50226;BME280;36113;50.742;6.432;2023-07-29T11:05:26;98166.06;;;21.95;69.52
50226;BME280;36113;50.742;6.432;2023-07-29T11:07:51;98171.81;;;22.06;69.38
50226;BME280;36113;50.742;6.432;2023-07-29T11:10:17;98170.69;;;22.26;66.61
50226;BME280;36113;50.742;6.432;2023-07-29T11:12:44;98153.97;;;22.03;64.62
50226;BME280;36113;50.742;6.432;2023-07-29T11:15:27;98156.38;;;22.05;67.14
50226;BME280;36113;50.742;6.432;2023-07-29T11:20:20;98166.56;;;22.59;65.27
50226;BME280;36113;50.742;6.432;2023-07-29T11:22:46;98166.38;;;22.48;64.06
50226;BME280;36113;50.742;6.432;2023-07-29T11:25:14;98153.81;;;22.55;63.98
50226;BME280;36113;50.742;6.432;2023-07-29T11:27:40;98168.31;;;22.90;62.41
50226;BME280;36113;50.742;6.432;2023-07-29T11:30:07;98137.97;;;22.75;62.09
50226;BME280;36113;50.742;6.432;2023-07-29T11:32:34;98163.88;;;23.05;62.17
50226;BME280;36113;50.742;6.432;2023-07-29T11:35:10;98155.47;;;23.02;61.83
50226;BME280;36113;50.742;6.432;2023-07-29T11:37:37;98150.22;;;23.20;61.38
50226;BME280;36113;50.742;6.432;2023-07-29T11:40:03;98158.50;;;23.16;60.90
50226;BME280;36113;50.742;6.432;2023-07-29T11:42:32;98159.03;;;23.02;61.21
50226;BME280;36113;50.742;6.432;2023-07-29T11:44:58;98151.09;;;23.24;60.63
50226;BME280;36113;50.742;6.432;2023-07-29T11:47:23;98140.50;;;23.06;59.60
50226;BME280;36113;50.742;6.432;2023-07-29T11:49:49;98128.38;;;23.14;57.70
50226;BME280;36113;50.742;6.432;2023-07-29T11:52:15;98116.50;;;23.41;58.95
50226;BME280;36113;50.742;6.432;2023-07-29T11:54:44;98106.28;;;23.75;58.15
50226;BME280;36113;50.742;6.432;2023-07-29T11:57:10;98102.28;;;23.46;56.19
50226;BME280;36113;50.742;6.432;2023-07-29T11:59:36;98128.53;;;23.52;56.91
50226;BME280;36113;50.742;6.432;2023-07-29T12:02:06;98101.41;;;23.11;56.30
50226;BME280;36113;50.742;6.432;2023-07-29T12:04:33;98106.19;;;23.14;56.63
50226;BME280;36113;50.742;6.432;2023-07-29T12:06:59;98126.63;;;23.56;55.96
50226;BME280;36113;50.742;6.432;2023-07-29T12:09:25;98096.97;;;23.33;57.08
50226;BME280;36113;50.742;6.432;2023-07-29T12:11:52;98139.91;;;23.43;57.71
50226;BME280;36113;50.742;6.432;2023-07-29T12:14:17;98097.53;;;23.20;58.15
50226;BME280;36113;50.742;6.432;2023-07-29T12:16:43;98122.22;;;23.55;56.97
50226;BME280;36113;50.742;6.432;2023-07-29T12:19:12;98112.22;;;23.47;56.08
50226;BME280;36113;50.742;6.432;2023-07-29T12:21:38;98106.84;;;23.61;55.55
50226;BME280;36113;50.742;6.432;2023-07-29T12:24:04;98096.38;;;24.08;56.16
50226;BME280;36113;50.742;6.432;2023-07-29T12:26:30;98113.88;;;24.12;54.89
50226;BME280;36113;50.742;6.432;2023-07-29T12:28:55;98090.16;;;23.58;55.42
50226;BME280;36113;50.742;6.432;2023-07-29T12:31:21;98111.22;;;23.32;55.82
50226;BME280;36113;50.742;6.432;2023-07-29T12:33:47;98097.56;;;22.97;56.50
50226;BME280;36113;50.742;6.432;2023-07-29T12:36:12;98096.94;;;22.84;57.40
50226;BME280;36113;50.742;6.432;2023-07-29T12:38:38;98102.44;;;22.57;58.24
50226;BME280;36113;50.742;6.432;2023-07-29T12:41:03;98086.25;;;22.36;58.05
50226;BME280;36113;50.742;6.432;2023-07-29T12:43:28;98120.63;;;22.35;58.36
50226;BME280;36113;50.742;6.432;2023-07-29T12:45:54;98112.75;;;22.18;59.66
50226;BME280;36113;50.742;6.432;2023-07-29T12:48:19;98099.34;;;22.00;59.67
50226;BME280;36113;50.742;6.432;2023-07-29T12:50:44;98093.41;;;21.79;59.17
50226;BME280;36113;50.742;6.432;2023-07-29T12:53:10;98126.66;;;21.82;59.60
50226;BME280;36113;50.742;6.432;2023-07-29T12:55:36;98123.16;;;21.66;59.64
50226;BME280;36113;50.742;6.432;2023-07-29T12:58:01;98124.78;;;21.51;60.61
50226;BME280;36113;50.742;6.432;2023-07-29T13:00:27;98151.03;;;21.41;61.98